createdAt,value
2019-04-28T00:02:10.962Z,3.94
2019-04-28T00:07:08.960Z,4.05
2019-04-28T00:12:11.438Z,4
2019-04-28T00:17:11.141Z,3.94
2019-04-28T00:22:10.998Z,3.88
2019-04-28T00:27:11.680Z,3.88
2019-04-28T00:32:08.552Z,3.83
2019-04-28T00:37:11.185Z,3.66
2019-04-28T00:42:09.030Z,3.55
2019-04-28T00:47:10.891Z,3.66
2019-04-28T00:52:12.555Z,3.77
2019-04-28T00:57:09.072Z,3.83
2019-04-28T01:02:11.136Z,3.83
2019-04-28T01:07:11.519Z,3.77
2019-04-28T01:12:11.175Z,3.77
2019-04-28T01:17:10.690Z,3.77
2019-04-28T01:22:10.478Z,3.83
2019-04-28T01:27:11.022Z,3.88
2019-04-28T01:32:10.398Z,3.88
2019-04-28T01:37:11.132Z,3.94
2019-04-28T01:42:10.698Z,4
2019-04-28T01:47:10.114Z,3.94
2019-04-28T01:52:10.402Z,3.83
2019-04-28T01:57:10.762Z,3.77
2019-04-28T02:02:10.178Z,3.72
2019-04-28T02:07:11.092Z,3.72
2019-04-28T02:12:10.668Z,3.77
2019-04-28T02:17:10.597Z,3.88
2019-04-28T02:22:10.532Z,4
2019-04-28T02:27:10.715Z,4.05
2019-04-28T02:32:10.465Z,4.05
2019-04-28T02:37:11.244Z,4.11
2019-04-28T02:42:11.045Z,4.16
2019-04-28T02:47:11.168Z,4.16
2019-04-28T02:52:10.726Z,4.16
2019-04-28T02:57:10.773Z,4.16
2019-04-28T03:02:10.786Z,4.22
2019-04-28T03:07:11.413Z,4.22
2019-04-28T03:12:11.291Z,4.22
2019-04-28T03:17:11.207Z,4.27
2019-04-28T03:22:11.516Z,4.33
2019-04-28T03:27:10.812Z,4.33
2019-04-28T03:37:11.292Z,4.33
2019-04-28T03:42:11.717Z,4.38
2019-04-28T03:47:10.599Z,4.38
2019-04-28T03:52:10.687Z,4.44
2019-04-28T03:57:11.356Z,4.44
2019-04-28T04:02:11.254Z,4.44
2019-04-28T04:07:11.104Z,4.44
2019-04-28T04:12:11.126Z,4.5
2019-04-28T04:17:11.400Z,4.5
2019-04-28T04:22:12.429Z,4.61
2019-04-28T04:27:10.740Z,4.61
2019-04-28T04:32:15.715Z,4.61
2019-04-28T04:37:12.159Z,4.66
2019-04-28T04:42:10.579Z,4.66
2019-04-28T04:47:10.967Z,4.72
2019-04-28T04:52:10.520Z,4.77
2019-04-28T04:57:10.944Z,4.83
2019-04-28T05:02:26.682Z,4.83
2019-04-28T05:07:12.217Z,4.88
2019-04-28T05:12:09.772Z,4.94
2019-04-28T05:17:10.370Z,5
2019-04-28T05:22:10.286Z,5
2019-04-28T05:27:09.956Z,5
2019-04-28T05:32:10.836Z,5.05
2019-04-28T05:37:10.822Z,5.05
2019-04-28T05:42:11.269Z,5
2019-04-28T05:47:10.342Z,5.05
2019-04-28T05:52:11.728Z,5.05
2019-04-28T05:57:10.697Z,5.22
2019-04-28T06:02:10.584Z,5.38
2019-04-28T06:07:10.065Z,5.5
2019-04-28T06:12:10.326Z,5.66
2019-04-28T06:17:10.898Z,5.66
2019-04-28T06:22:09.539Z,5.72
2019-04-28T06:27:09.496Z,6.38
2019-04-28T06:32:09.491Z,6.44
2019-04-28T06:37:10.420Z,6.77
2019-04-28T06:42:08.224Z,6.83
2019-04-28T06:47:11.287Z,6.61
2019-04-28T06:52:09.535Z,6.55
2019-04-28T06:57:10.216Z,6.44
2019-04-28T07:02:09.544Z,6.61
2019-04-28T07:07:09.131Z,7.11
2019-04-28T07:27:10.408Z,8.22
2019-04-28T07:32:10.230Z,8
2019-04-28T07:37:09.942Z,7.61
2019-04-28T07:42:09.774Z,7.11
2019-04-28T07:47:09.466Z,6.88
2019-04-28T07:57:10.462Z,7.11
2019-04-28T08:02:09.242Z,7.5
2019-04-28T08:07:09.300Z,7.5
2019-04-28T08:12:09.802Z,8.11
2019-04-28T08:17:10.388Z,8.55
2019-04-28T08:22:09.471Z,8.61
2019-04-28T08:27:09.766Z,9.27
2019-04-28T09:02:10.343Z,12.38
2019-04-28T12:47:09.095Z,17.38
2019-04-28T12:52:09.378Z,15.66
2019-04-28T12:57:09.976Z,13.66
2019-04-28T13:02:09.576Z,13
2019-04-28T13:07:09.133Z,12.44
2019-04-28T13:12:09.252Z,11.33
2019-04-28T13:27:10.396Z,9.77
2019-04-28T13:32:09.822Z,9.94
2019-04-28T13:37:09.549Z,10.27
2019-04-28T13:57:09.781Z,13
2019-04-28T14:02:09.248Z,13.5
2019-04-28T14:07:09.687Z,13.94
2019-04-28T14:12:10.111Z,14
2019-04-28T14:17:09.657Z,14
2019-04-28T14:22:08.934Z,14.27
2019-04-28T14:27:09.239Z,14.44
2019-04-28T14:32:09.325Z,14.27
2019-04-28T14:37:11.075Z,13.77
2019-04-28T14:42:09.230Z,13.5
2019-04-28T14:47:09.238Z,13.33
2019-04-28T14:52:10.315Z,13.33
2019-04-28T14:57:10.764Z,13.77
2019-04-28T15:02:09.513Z,13.88
2019-04-28T15:07:08.624Z,13.72
2019-04-28T15:12:10.718Z,13.38
2019-04-28T15:17:09.910Z,13.22
2019-04-28T15:22:09.485Z,13.38
2019-04-28T15:27:10.383Z,13.5
2019-04-28T15:32:10.017Z,13.61
2019-04-28T15:37:10.317Z,13.61
2019-04-28T15:47:09.996Z,13.33
2019-04-28T15:52:09.837Z,13.16
2019-04-28T15:57:10.041Z,13
2019-04-28T16:02:09.621Z,12.83
2019-04-28T16:07:09.380Z,12.33
2019-04-28T16:12:10.161Z,12.27
2019-04-28T16:32:09.962Z,12.33
2019-04-28T16:42:10.235Z,12.27
2019-04-28T16:57:11.126Z,12.05
2019-04-28T17:02:10.463Z,11.94
2019-04-28T17:07:10.483Z,11.66
2019-04-28T17:12:10.387Z,11.55
2019-04-28T17:17:10.824Z,11.22
2019-04-28T17:27:09.925Z,10.83
2019-04-28T17:32:10.329Z,10.61
2019-04-28T17:37:09.864Z,10.66
2019-04-28T17:42:08.919Z,10.66
2019-04-28T18:12:10.042Z,10.11
2019-04-28T18:17:08.765Z,9.88
2019-04-28T18:22:10.142Z,9.83
2019-04-28T18:37:10.194Z,9.22
2019-04-28T18:47:09.960Z,9.05
2019-04-28T18:52:10.143Z,8.94
2019-04-28T18:57:10.343Z,8.94
2019-04-28T19:02:10.022Z,8.94
2019-04-28T19:07:09.637Z,8.94
2019-04-28T19:12:09.434Z,8.94
2019-04-28T19:17:10.716Z,8.77
2019-04-28T19:22:09.690Z,8.72
2019-04-28T19:37:10.516Z,8.83
2019-04-28T19:42:09.797Z,8.77
2019-04-28T20:17:10.457Z,8.22
2019-04-28T20:22:10.314Z,8
2019-04-28T20:27:09.825Z,7.83
2019-04-28T20:32:09.624Z,7.83
2019-04-28T20:37:09.425Z,7.83
2019-04-28T20:47:09.328Z,7.94
2019-04-28T20:52:09.485Z,8
2019-04-28T20:57:09.612Z,8.05
2019-04-28T21:02:09.659Z,8
2019-04-28T21:07:09.045Z,8.11
2019-04-28T21:12:10.146Z,8
2019-04-28T21:17:10.500Z,7.94
2019-04-28T21:22:10.029Z,7.94
2019-04-28T21:27:09.697Z,7.88
2019-04-28T21:32:09.200Z,7.88
2019-04-28T21:37:10.274Z,7.88
2019-04-28T21:42:09.413Z,7.88
2019-04-28T21:47:10.148Z,7.88
2019-04-28T21:52:09.884Z,7.83
2019-04-28T21:57:09.478Z,7.66
2019-04-28T22:02:09.898Z,7.5
2019-04-28T22:07:09.924Z,7.38
2019-04-28T22:12:09.010Z,7.38
2019-04-28T22:17:09.195Z,7.5
2019-04-28T22:22:10.006Z,7.5
2019-04-28T22:27:09.916Z,7.5
2019-04-28T22:32:09.965Z,7.5
2019-04-28T22:37:09.748Z,7.5
2019-04-28T22:42:09.814Z,7.44
2019-04-28T22:47:10.086Z,7.38
2019-04-28T22:52:10.569Z,7.38
2019-04-28T22:57:09.905Z,7.16
2019-04-28T23:02:09.004Z,7.16
2019-04-28T23:07:10.339Z,7.16
2019-04-28T23:12:10.615Z,7.16
2019-04-28T23:17:08.985Z,7.16
2019-04-28T23:22:10.460Z,7.16
2019-04-28T23:27:10.447Z,7.11
2019-04-28T23:32:11.209Z,7
2019-04-28T23:37:10.061Z,6.94
2019-04-28T23:42:09.751Z,6.94
2019-04-28T23:47:10.153Z,6.88
2019-04-28T23:52:10.951Z,6.83
2019-04-28T23:57:09.734Z,6.83
